sensor_id;sensor_type;location;lat;lon;timestamp;pressure;altitude;pressure_sealevel;temperature;humidity
57827;BME280;43656;57.746;11.780;2022-10-16T00:01:31;100124.09;;;12.80;100.00
57827;BME280;43656;57.746;11.780;2022-10-16T00:03:58;100113.84;;;12.70;100.00
57827;BME280;43656;57.746;11.780;2022-10-16T00:06:24;100136.50;;;12.69;100.00
57827;BME280;43656;57.746;11.780;2022-10-16T00:08:51;100144.81;;;12.68;100.00
57827;BME280;43656;57.746;11.780;2022-10-16T00:13:45;100143.56;;;12.70;100.00
57827;BME280;43656;57.746;11.780;2022-10-16T00:16:12;100146.03;;;12.72;100.00
57827;BME280;43656;57.746;11.780;2022-10-16T00:18:39;100156.00;;;12.72;100.00
57827;BME280;43656;57.746;11.780;2022-10-16T00:21:13;100140.94;;;12.64;100.00
57827;BME280;43656;57.746;11.780;2022-10-16T00:23:39;100145.31;;;12.65;100.00
57827;BME280;43656;57.746;11.780;2022-10-16T00:26:07;100155.13;;;12.59;100.00
57827;BME280;43656;57.746;11.780;2022-10-16T00:28:34;100164.66;;;12.62;100.00
57827;BME280;43656;57.746;11.780;2022-10-16T00:31:03;100160.75;;;12.58;100.00
57827;BME280;43656;57.746;11.780;2022-10-16T00:33:29;100167.06;;;12.52;100.00
57827;BME280;43656;57.746;11.780;2022-10-16T00:35:58;100164.69;;;12.43;100.00
57827;BME280;43656;57.746;11.780;2022-10-16T00:38:23;100167.38;;;12.43;100.00
57827;BME280;43656;57.746;11.780;2022-10-16T00:40:49;100168.72;;;12.34;100.00
57827;BME280;43656;57.746;11.780;2022-10-16T00:46:42;100174.88;;;12.23;100.00
57827;BME280;43656;57.746;11.780;2022-10-16T00:49:11;100177.66;;;12.16;100.00
57827;BME280;43656;57.746;11.780;2022-10-16T00:54:09;100185.44;;;12.06;100.00
57827;BME280;43656;57.746;11.780;2022-10-16T00:56:35;100185.28;;;12.01;100.00
57827;BME280;43656;57.746;11.780;2022-10-16T00:59:03;100186.41;;;11.93;100.00
57827;BME280;43656;57.746;11.780;2022-10-16T01:01:31;100189.19;;;11.87;100.00
57827;BME280;43656;57.746;11.780;2022-10-16T01:03:57;100192.53;;;11.82;100.00
57827;BME280;43656;57.746;11.780;2022-10-16T01:09:20;100194.03;;;11.71;100.00
57827;BME280;43656;57.746;11.780;2022-10-16T01:17:13;100193.34;;;11.58;100.00
57827;BME280;43656;57.746;11.780;2022-10-16T01:22:37;100202.97;;;11.47;100.00
57827;BME280;43656;57.746;11.780;2022-10-16T01:25:09;100174.50;;;11.33;100.00
57827;BME280;43656;57.746;11.780;2022-10-16T01:27:39;100198.03;;;11.44;100.00
57827;BME280;43656;57.746;11.780;2022-10-16T01:30:21;100192.47;;;11.39;100.00
57827;BME280;43656;57.746;11.780;2022-10-16T01:33:13;100200.78;;;11.37;100.00
57827;BME280;43656;57.746;11.780;2022-10-16T01:36:06;100204.72;;;11.35;100.00
57827;BME280;43656;57.746;11.780;2022-10-16T01:38:36;100208.66;;;11.32;100.00
57827;BME280;43656;57.746;11.780;2022-10-16T01:41:15;100216.38;;;11.28;100.00
57827;BME280;43656;57.746;11.780;2022-10-16T01:43:48;100209.78;;;11.24;100.00
57827;BME280;43656;57.746;11.780;2022-10-16T01:46:18;100207.94;;;11.18;100.00
57827;BME280;43656;57.746;11.780;2022-10-16T01:48:46;100209.00;;;11.17;100.00
57827;BME280;43656;57.746;11.780;2022-10-16T01:51:14;100199.91;;;11.12;100.00
57827;BME280;43656;57.746;11.780;2022-10-16T01:53:43;100209.25;;;11.09;100.00
57827;BME280;43656;57.746;11.780;2022-10-16T01:56:12;100184.94;;;10.91;100.00
57827;BME280;43656;57.746;11.780;2022-10-16T01:58:46;100218.63;;;11.00;100.00
57827;BME280;43656;57.746;11.780;2022-10-16T02:01:14;100219.28;;;10.95;100.00
57827;BME280;43656;57.746;11.780;2022-10-16T02:03:44;100208.38;;;10.84;100.00
57827;BME280;43656;57.746;11.780;2022-10-16T02:06:11;100225.97;;;10.86;100.00
57827;BME280;43656;57.746;11.780;2022-10-16T02:08:37;100221.84;;;10.84;100.00
57827;BME280;43656;57.746;11.780;2022-10-16T02:11:04;100224.34;;;10.78;100.00
57827;BME280;43656;57.746;11.780;2022-10-16T02:13:37;100211.13;;;10.70;100.00
57827;BME280;43656;57.746;11.780;2022-10-16T02:16:04;100202.88;;;10.65;100.00
57827;BME280;43656;57.746;11.780;2022-10-16T02:18:30;100231.16;;;10.81;100.00
57827;BME280;43656;57.746;11.780;2022-10-16T02:20:59;100233.84;;;10.81;100.00
57827;BME280;43656;57.746;11.780;2022-10-16T02:23:51;100205.97;;;10.62;100.00
57827;BME280;43656;57.746;11.780;2022-10-16T02:26:27;100236.94;;;10.85;100.00
57827;BME280;43656;57.746;11.780;2022-10-16T02:28:56;100241.69;;;10.82;100.00
57827;BME280;43656;57.746;11.780;2022-10-16T02:31:28;100241.91;;;10.81;100.00
57827;BME280;43656;57.746;11.780;2022-10-16T02:33:58;100248.13;;;10.81;100.00
57827;BME280;43656;57.746;11.780;2022-10-16T02:36:25;100245.44;;;10.81;100.00
57827;BME280;43656;57.746;11.780;2022-10-16T02:38:51;100239.66;;;10.78;100.00
57827;BME280;43656;57.746;11.780;2022-10-16T02:41:18;100242.75;;;10.81;100.00
57827;BME280;43656;57.746;11.780;2022-10-16T02:43:44;100246.66;;;10.86;100.00
57827;BME280;43656;57.746;11.780;2022-10-16T02:46:09;100244.81;;;10.86;100.00
57827;BME280;43656;57.746;11.780;2022-10-16T02:48:34;100235.28;;;10.84;100.00
57827;BME280;43656;57.746;11.780;2022-10-16T02:51:01;100239.00;;;10.82;100.00
57827;BME280;43656;57.746;11.780;2022-10-16T02:53:26;100246.66;;;10.86;100.00
57827;BME280;43656;57.746;11.780;2022-10-16T02:55:51;100244.81;;;10.86;100.00
57827;BME280;43656;57.746;11.780;2022-10-16T02:58:17;100243.75;;;10.87;100.00
57827;BME280;43656;57.746;11.780;2022-10-16T03:00:42;100244.59;;;10.88;100.00
57827;BME280;43656;57.746;11.780;2022-10-16T03:03:07;100246.84;;;10.91;100.00
57827;BME280;43656;57.746;11.780;2022-10-16T03:05:33;100241.84;;;10.94;100.00
57827;BME280;43656;57.746;11.780;2022-10-16T03:07:58;100247.88;;;10.96;100.00
57827;BME280;43656;57.746;11.780;2022-10-16T03:10:26;100233.78;;;10.94;100.00
57827;BME280;43656;57.746;11.780;2022-10-16T03:12:52;100236.06;;;10.91;100.00
57827;BME280;43656;57.746;11.780;2022-10-16T03:15:17;100242.63;;;11.01;100.00
57827;BME280;43656;57.746;11.780;2022-10-16T03:17:42;100245.94;;;11.03;100.00
57827;BME280;43656;57.746;11.780;2022-10-16T03:20:08;100228.16;;;10.96;100.00
57827;BME280;43656;57.746;11.780;2022-10-16T03:22:37;100244.25;;;11.09;100.00
57827;BME280;43656;57.746;11.780;2022-10-16T03:25:02;100248.38;;;11.12;100.00
57827;BME280;43656;57.746;11.780;2022-10-16T03:27:28;100245.25;;;11.15;100.00
57827;BME280;43656;57.746;11.780;2022-10-16T03:29:53;100241.50;;;11.16;100.00
57827;BME280;43656;57.746;11.780;2022-10-16T03:32:18;100242.75;;;11.20;100.00
57827;BME280;43656;57.746;11.780;2022-10-16T03:34:45;100247.09;;;11.21;100.00
57827;BME280;43656;57.746;11.780;2022-10-16T03:37:10;100240.06;;;11.20;100.00
57827;BME280;43656;57.746;11.780;2022-10-16T03:39:36;100240.25;;;11.18;100.00
57827;BME280;43656;57.746;11.780;2022-10-16T03:42:02;100208.91;;;10.99;100.00
57827;BME280;43656;57.746;11.780;2022-10-16T03:44:27;100234.31;;;11.10;100.00
57827;BME280;43656;57.746;11.780;2022-10-16T03:46:55;100239.53;;;11.04;100.00
57827;BME280;43656;57.746;11.780;2022-10-16T03:49:20;100243.88;;;10.99;100.00
57827;BME280;43656;57.746;11.780;2022-10-16T03:51:46;100242.69;;;10.95;100.00
57827;BME280;43656;57.746;11.780;2022-10-16T03:54:11;100235.25;;;10.90;100.00
57827;BME280;43656;57.746;11.780;2022-10-16T03:56:39;100238.16;;;10.89;100.00
57827;BME280;43656;57.746;11.780;2022-10-16T03:59:05;100241.50;;;10.84;100.00
57827;BME280;43656;57.746;11.780;2022-10-16T04:01:30;100233.22;;;10.79;100.00
57827;BME280;43656;57.746;11.780;2022-10-16T04:03:56;100234.94;;;10.73;100.00
57827;BME280;43656;57.746;11.780;2022-10-16T04:06:21;100220.91;;;10.58;100.00
57827;BME280;43656;57.746;11.780;2022-10-16T04:08:46;100245.06;;;10.71;100.00
57827;BME280;43656;57.746;11.780;2022-10-16T04:11:12;100244.44;;;10.69;100.00
57827;BME280;43656;57.746;11.780;2022-10-16T04:13:37;100233.28;;;10.66;100.00
57827;BME280;43656;57.746;11.780;2022-10-16T04:16:03;100237.44;;;10.62;100.00
57827;BME280;43656;57.746;11.780;2022-10-16T04:18:28;100242.66;;;10.56;100.00
57827;BME280;43656;57.746;11.780;2022-10-16T04:20:54;100244.94;;;10.60;100.00
57827;BME280;43656;57.746;11.780;2022-10-16T04:23:20;100239.97;;;10.56;100.00
57827;BME280;43656;57.746;11.780;2022-10-16T04:25:48;100247.63;;;10.53;100.00
57827;BME280;43656;57.746;11.780;2022-10-16T04:28:13;100237.50;;;10.48;100.00
57827;BME280;43656;57.746;11.780;2022-10-16T04:30:39;100240.03;;;10.43;100.00
57827;BME280;43656;57.746;11.780;2022-10-16T04:33:05;100204.06;;;10.18;100.00
57827;BME280;43656;57.746;11.780;2022-10-16T04:35:31;100241.88;;;10.36;100.00
57827;BME280;43656;57.746;11.780;2022-10-16T04:37:59;100235.06;;;10.33;100.00
57827;BME280;43656;57.746;11.780;2022-10-16T04:40:25;100211.31;;;10.17;100.00
57827;BME280;43656;57.746;11.780;2022-10-16T04:42:50;100229.28;;;10.23;100.00
57827;BME280;43656;57.746;11.780;2022-10-16T04:45:15;100240.03;;;10.23;100.00
57827;BME280;43656;57.746;11.780;2022-10-16T04:47:41;100235.09;;;10.20;100.00
57827;BME280;43656;57.746;11.780;2022-10-16T04:50:07;100226.63;;;10.17;100.00
57827;BME280;43656;57.746;11.780;2022-10-16T04:52:33;100234.25;;;10.13;100.00
57827;BME280;43656;57.746;11.780;2022-10-16T04:54:58;100234.25;;;10.13;100.00
57827;BME280;43656;57.746;11.780;2022-10-16T04:57:27;100237.16;;;10.11;100.00
57827;BME280;43656;57.746;11.780;2022-10-16T04:59:52;100245.44;;;10.10;100.00
57827;BME280;43656;57.746;11.780;2022-10-16T05:02:18;100248.13;;;10.10;100.00
57827;BME280;43656;57.746;11.780;2022-10-16T05:04:43;100242.94;;;10.08;100.00
57827;BME280;43656;57.746;11.780;2022-10-16T05:07:08;100239.22;;;10.09;100.00
57827;BME280;43656;57.746;11.780;2022-10-16T05:09:34;100228.88;;;10.13;100.00
57827;BME280;43656;57.746;11.780;2022-10-16T05:11:59;100228.44;;;10.16;100.00
57827;BME280;43656;57.746;11.780;2022-10-16T05:14:24;100227.03;;;10.20;100.00
57827;BME280;43656;57.746;11.780;2022-10-16T05:16:50;100216.84;;;10.22;100.00
57827;BME280;43656;57.746;11.780;2022-10-16T05:19:16;100228.25;;;10.31;100.00
57827;BME280;43656;57.746;11.780;2022-10-16T05:21:41;100217.69;;;10.29;100.00
57827;BME280;43656;57.746;11.780;2022-10-16T05:24:06;100200.31;;;10.19;100.00
57827;BME280;43656;57.746;11.780;2022-10-16T05:26:32;100223.69;;;10.38;100.00
57827;BME280;43656;57.746;11.780;2022-10-16T05:28:57;100200.75;;;10.29;100.00
57827;BME280;43656;57.746;11.780;2022-10-16T05:31:22;100221.97;;;10.50;100.00
57827;BME280;43656;57.746;11.780;2022-10-16T05:33:48;100227.13;;;10.58;100.00
57827;BME280;43656;57.746;11.780;2022-10-16T05:36:13;100225.59;;;10.69;100.00
57827;BME280;43656;57.746;11.780;2022-10-16T05:38:39;100226.19;;;10.78;100.00
57827;BME280;43656;57.746;11.780;2022-10-16T05:41:05;100232.59;;;10.84;100.00
57827;BME280;43656;57.746;11.780;2022-10-16T05:43:31;100230.06;;;10.89;100.00
57827;BME280;43656;57.746;11.780;2022-10-16T05:45:58;100234.81;;;10.93;100.00
57827;BME280;43656;57.746;11.780;2022-10-16T05:48:25;100230.22;;;11.00;100.00
57827;BME280;43656;57.746;11.780;2022-10-16T05:51:02;100224.38;;;11.10;100.00
57827;BME280;43656;57.746;11.780;2022-10-16T05:53:29;100223.66;;;11.21;100.00
57827;BME280;43656;57.746;11.780;2022-10-16T05:55:55;100232.09;;;11.32;100.00
57827;BME280;43656;57.746;11.780;2022-10-16T05:58:22;100225.84;;;11.38;100.00
57827;BME280;43656;57.746;11.780;2022-10-16T06:03:20;100186.91;;;11.34;100.00
57827;BME280;43656;57.746;11.780;2022-10-16T06:05:45;100213.91;;;11.52;100.00
57827;BME280;43656;57.746;11.780;2022-10-16T06:08:10;100229.31;;;11.70;100.00
57827;BME280;43656;57.746;11.780;2022-10-16T06:10:36;100226.78;;;11.75;100.00
57827;BME280;43656;57.746;11.780;2022-10-16T06:13:01;100225.31;;;11.79;100.00
57827;BME280;43656;57.746;11.780;2022-10-16T06:15:27;100229.19;;;11.83;100.00
57827;BME280;43656;57.746;11.780;2022-10-16T06:17:52;100194.50;;;11.68;100.00
57827;BME280;43656;57.746;11.780;2022-10-16T06:20:17;100220.63;;;11.93;100.00
57827;BME280;43656;57.746;11.780;2022-10-16T06:22:43;100226.25;;;11.91;100.00
57827;BME280;43656;57.746;11.780;2022-10-16T06:25:08;100223.47;;;11.98;100.00
57827;BME280;43656;57.746;11.780;2022-10-16T06:27:34;100217.44;;;12.03;100.00
57827;BME280;43656;57.746;11.780;2022-10-16T06:29:59;100224.63;;;12.09;100.00
57827;BME280;43656;57.746;11.780;2022-10-16T06:32:25;100224.03;;;12.07;100.00
57827;BME280;43656;57.746;11.780;2022-10-16T06:34:50;100226.41;;;12.15;100.00
57827;BME280;43656;57.746;11.780;2022-10-16T06:37:15;100223.34;;;12.11;100.00
57827;BME280;43656;57.746;11.780;2022-10-16T06:39:41;100230.91;;;12.21;100.00
57827;BME280;43656;57.746;11.780;2022-10-16T06:42:06;100237.75;;;12.23;100.00
57827;BME280;43656;57.746;11.780;2022-10-16T06:44:32;100222.00;;;12.20;100.00
57827;BME280;43656;57.746;11.780;2022-10-16T06:46:57;100201.19;;;12.09;100.00
57827;BME280;43656;57.746;11.780;2022-10-16T06:49:22;100243.69;;;12.32;100.00
57827;BME280;43656;57.746;11.780;2022-10-16T06:51:48;100213.31;;;12.18;100.00
57827;BME280;43656;57.746;11.780;2022-10-16T06:54:15;100234.47;;;12.40;100.00
57827;BME280;43656;57.746;11.780;2022-10-16T06:56:40;100231.16;;;12.38;100.00
57827;BME280;43656;57.746;11.780;2022-10-16T06:59:06;100241.66;;;12.46;100.00
57827;BME280;43656;57.746;11.780;2022-10-16T07:01:31;100208.28;;;12.40;100.00
57827;BME280;43656;57.746;11.780;2022-10-16T07:03:57;100237.53;;;12.62;100.00
57827;BME280;43656;57.746;11.780;2022-10-16T07:06:24;100229.13;;;12.70;100.00
57827;BME280;43656;57.746;11.780;2022-10-16T07:08:50;100227.38;;;12.76;100.00
57827;BME280;43656;57.746;11.780;2022-10-16T07:11:21;100219.66;;;12.79;100.00
57827;BME280;43656;57.746;11.780;2022-10-16T07:13:48;100206.25;;;12.73;100.00
57827;BME280;43656;57.746;11.780;2022-10-16T07:16:16;100219.28;;;12.76;100.00
57827;BME280;43656;57.746;11.780;2022-10-16T07:18:43;100218.94;;;12.72;100.00
57827;BME280;43656;57.746;11.780;2022-10-16T07:21:16;100217.88;;;12.73;100.00
57827;BME280;43656;57.746;11.780;2022-10-16T07:23:42;100213.97;;;12.69;100.00
57827;BME280;43656;57.746;11.780;2022-10-16T07:26:08;100219.41;;;12.81;100.00
57827;BME280;43656;57.746;11.780;2022-10-16T07:28:34;100210.03;;;12.83;100.00
57827;BME280;43656;57.746;11.780;2022-10-16T07:31:04;100186.28;;;12.74;100.00
57827;BME280;43656;57.746;11.780;2022-10-16T07:33:31;100224.34;;;13.02;100.00
57827;BME280;43656;57.746;11.780;2022-10-16T07:35:57;100222.88;;;13.18;100.00
57827;BME280;43656;57.746;11.780;2022-10-16T07:38:23;100205.22;;;13.15;100.00
57827;BME280;43656;57.746;11.780;2022-10-16T07:40:56;100192.88;;;13.08;100.00
57827;BME280;43656;57.746;11.780;2022-10-16T07:43:21;100205.53;;;13.26;100.00
57827;BME280;43656;57.746;11.780;2022-10-16T07:45:50;100202.94;;;13.31;100.00
57827;BME280;43656;57.746;11.780;2022-10-16T07:48:17;100208.03;;;13.51;100.00
57827;BME280;43656;57.746;11.780;2022-10-16T07:50:43;100207.09;;;13.57;100.00
57827;BME280;43656;57.746;11.780;2022-10-16T07:53:09;100200.66;;;13.58;100.00
57827;BME280;43656;57.746;11.780;2022-10-16T07:55:35;100211.91;;;13.67;100.00
57827;BME280;43656;57.746;11.780;2022-10-16T07:58:00;100207.34;;;13.67;100.00
57827;BME280;43656;57.746;11.780;2022-10-16T08:00:25;100211.81;;;13.73;100.00
57827;BME280;43656;57.746;11.780;2022-10-16T08:02:51;100211.81;;;13.73;100.00
57827;BME280;43656;57.746;11.780;2022-10-16T08:05:16;100218.88;;;13.74;100.00
57827;BME280;43656;57.746;11.780;2022-10-16T08:07:42;100214.16;;;13.70;100.00
57827;BME280;43656;57.746;11.780;2022-10-16T08:10:16;100217.22;;;13.73;100.00
57827;BME280;43656;57.746;11.780;2022-10-16T08:12:41;100191.56;;;13.64;100.00
57827;BME280;43656;57.746;11.780;2022-10-16T08:15:07;100221.22;;;13.82;100.00
57827;BME280;43656;57.746;11.780;2022-10-16T08:17:35;100211.09;;;13.90;100.00
57827;BME280;43656;57.746;11.780;2022-10-16T08:20:01;100216.66;;;13.95;100.00
57827;BME280;43656;57.746;11.780;2022-10-16T08:22:27;100196.19;;;13.99;100.00
57827;BME280;43656;57.746;11.780;2022-10-16T08:24:52;100210.75;;;14.09;100.00
57827;BME280;43656;57.746;11.780;2022-10-16T08:27:17;100205.09;;;14.23;100.00
57827;BME280;43656;57.746;11.780;2022-10-16T08:29:43;100188.06;;;14.10;100.00
57827;BME280;43656;57.746;11.780;2022-10-16T08:32:08;100219.22;;;14.25;100.00
57827;BME280;43656;57.746;11.780;2022-10-16T08:34:33;100195.81;;;14.07;100.00
57827;BME280;43656;57.746;11.780;2022-10-16T08:36:59;100178.53;;;13.96;100.00
57827;BME280;43656;57.746;11.780;2022-10-16T08:39:25;100225.09;;;14.22;100.00
57827;BME280;43656;57.746;11.780;2022-10-16T08:47:22;100200.94;;;14.32;100.00
57827;BME280;43656;57.746;11.780;2022-10-16T08:50:07;100225.03;;;14.45;100.00
57827;BME280;43656;57.746;11.780;2022-10-16T08:52:35;100227.75;;;14.45;100.00
57827;BME280;43656;57.746;11.780;2022-10-16T08:55:04;100229.03;;;14.43;100.00
57827;BME280;43656;57.746;11.780;2022-10-16T08:57:29;100220.44;;;14.46;100.00
57827;BME280;43656;57.746;11.780;2022-10-16T09:00:00;100216.34;;;14.55;100.00
57827;BME280;43656;57.746;11.780;2022-10-16T09:02:33;100220.81;;;14.61;100.00
57827;BME280;43656;57.746;11.780;2022-10-16T09:07:54;100219.22;;;14.77;100.00
57827;BME280;43656;57.746;11.780;2022-10-16T09:10:37;100201.75;;;14.85;100.00
57827;BME280;43656;57.746;11.780;2022-10-16T09:18:29;100219.41;;;15.16;100.00
57827;BME280;43656;57.746;11.780;2022-10-16T09:21:21;100213.91;;;15.11;100.00
57827;BME280;43656;57.746;11.780;2022-10-16T09:23:44;100196.72;;;14.76;100.00
57827;BME280;43656;57.746;11.780;2022-10-16T09:26:12;100222.28;;;14.80;100.00
57827;BME280;43656;57.746;11.780;2022-10-16T09:28:38;100214.22;;;14.86;100.00
57827;BME280;43656;57.746;11.780;2022-10-16T09:31:03;100218.53;;;14.98;100.00
57827;BME280;43656;57.746;11.780;2022-10-16T09:33:33;100217.56;;;15.04;100.00
57827;BME280;43656;57.746;11.780;2022-10-16T09:36:02;100211.19;;;15.11;100.00
57827;BME280;43656;57.746;11.780;2022-10-16T09:38:30;100223.81;;;15.05;100.00
57827;BME280;43656;57.746;11.780;2022-10-16T09:40:58;100189.66;;;14.75;100.00
57827;BME280;43656;57.746;11.780;2022-10-16T09:43:40;100215.53;;;14.83;100.00
57827;BME280;43656;57.746;11.780;2022-10-16T09:46:21;100190.97;;;14.73;100.00
57827;BME280;43656;57.746;11.780;2022-10-16T09:48:49;100230.34;;;14.92;100.00
57827;BME280;43656;57.746;11.780;2022-10-16T09:51:34;100214.44;;;14.96;100.00
57827;BME280;43656;57.746;11.780;2022-10-16T09:56:33;100230.56;;;15.19;100.00
57827;BME280;43656;57.746;11.780;2022-10-16T09:59:08;100229.84;;;15.24;100.00
57827;BME280;43656;57.746;11.780;2022-10-16T10:02:26;100197.06;;;15.09;100.00
57827;BME280;43656;57.746;11.780;2022-10-16T10:04:38;100200.22;;;15.34;100.00
57827;BME280;43656;57.746;11.780;2022-10-16T10:07:05;100219.78;;;15.53;100.00
57827;BME280;43656;57.746;11.780;2022-10-16T10:09:37;100217.16;;;15.58;100.00
57827;BME280;43656;57.746;11.780;2022-10-16T10:12:14;100209.75;;;15.54;100.00
57827;BME280;43656;57.746;11.780;2022-10-16T10:14:47;100200.03;;;15.24;100.00
57827;BME280;43656;57.746;11.780;2022-10-16T10:19:55;100203.63;;;15.13;100.00
57827;BME280;43656;57.746;11.780;2022-10-16T10:22:43;100207.97;;;14.97;100.00
57827;BME280;43656;57.746;11.780;2022-10-16T10:27:51;100216.53;;;14.77;100.00
57827;BME280;43656;57.746;11.780;2022-10-16T10:41:25;100203.44;;;14.22;100.00
57827;BME280;43656;57.746;11.780;2022-10-16T10:46:51;100218.59;;;14.34;100.00
57827;BME280;43656;57.746;11.780;2022-10-16T10:58:13;100211.97;;;14.94;100.00
57827;BME280;43656;57.746;11.780;2022-10-16T11:01:04;100205.09;;;15.03;100.00
57827;BME280;43656;57.746;11.780;2022-10-16T11:06:36;100197.34;;;14.95;100.00
57827;BME280;43656;57.746;11.780;2022-10-16T11:09:18;100205.59;;;15.00;100.00
57827;BME280;43656;57.746;11.780;2022-10-16T11:11:53;100205.00;;;14.98;100.00
57827;BME280;43656;57.746;11.780;2022-10-16T11:14:35;100196.28;;;14.96;100.00
57827;BME280;43656;57.746;11.780;2022-10-16T11:17:08;100197.34;;;14.95;100.00
57827;BME280;43656;57.746;11.780;2022-10-16T11:20:13;100197.34;;;14.95;100.00
57827;BME280;43656;57.746;11.780;2022-10-16T11:23:02;100173.72;;;14.91;100.00
57827;BME280;43656;57.746;11.780;2022-10-16T11:25:33;100183.81;;;14.95;100.00
57827;BME280;43656;57.746;11.780;2022-10-16T11:38:32;100172.81;;;14.45;100.00
57827;BME280;43656;57.746;11.780;2022-10-16T11:41:06;100174.56;;;14.39;100.00
57827;BME280;43656;57.746;11.780;2022-10-16T11:43:41;100152.97;;;14.16;100.00
57827;BME280;43656;57.746;11.780;2022-10-16T11:46:13;100171.91;;;14.27;100.00
57827;BME280;43656;57.746;11.780;2022-10-16T11:48:49;100157.09;;;14.06;100.00
57827;BME280;43656;57.746;11.780;2022-10-16T11:51:28;100179.56;;;14.07;100.00
57827;BME280;43656;57.746;11.780;2022-10-16T11:54:13;100257.66;;;14.03;100.00
57827;BME280;43656;57.746;11.780;2022-10-16T11:56:44;100286.47;;;13.32;100.00
57827;BME280;43656;57.746;11.780;2022-10-16T12:01:50;100247.38;;;11.94;100.00
57827;BME280;43656;57.746;11.780;2022-10-16T12:09:53;100274.25;;;11.19;100.00
57827;BME280;43656;57.746;11.780;2022-10-16T12:15:00;100246.03;;;11.22;100.00
57827;BME280;43656;57.746;11.780;2022-10-16T12:17:37;100241.88;;;11.26;100.00
57827;BME280;43656;57.746;11.780;2022-10-16T12:23:01;100241.00;;;11.32;100.00
57827;BME280;43656;57.746;11.780;2022-10-16T12:25:31;100229.34;;;11.38;100.00
57827;BME280;43656;57.746;11.780;2022-10-16T12:30:42;100188.88;;;11.45;100.00
57827;BME280;43656;57.746;11.780;2022-10-16T12:33:25;100161.56;;;11.41;100.00
57827;BME280;43656;57.746;11.780;2022-10-16T12:35:52;100190.78;;;11.69;100.00
57827;BME280;43656;57.746;11.780;2022-10-16T12:41:24;100216.03;;;12.55;100.00
57827;BME280;43656;57.746;11.780;2022-10-16T12:43:51;100219.66;;;12.79;100.00
57827;BME280;43656;57.746;11.780;2022-10-16T12:48:43;100249.72;;;13.13;100.00
57827;BME280;43656;57.746;11.780;2022-10-16T12:57:10;100269.09;;;13.28;100.00
57827;BME280;43656;57.746;11.780;2022-10-16T12:59:54;100273.50;;;13.23;100.00
57827;BME280;43656;57.746;11.780;2022-10-16T13:03:20;100278.06;;;13.22;100.00
57827;BME280;43656;57.746;11.780;2022-10-16T13:11:05;100246.28;;;12.76;100.00
57827;BME280;43656;57.746;11.780;2022-10-16T13:29:23;100356.81;;;13.26;100.00
57827;BME280;43656;57.746;11.780;2022-10-16T13:31:49;100364.59;;;13.34;100.00
57827;BME280;43656;57.746;11.780;2022-10-16T13:34:18;100363.31;;;13.36;100.00
57827;BME280;43656;57.746;11.780;2022-10-16T13:36:49;100367.59;;;13.44;100.00
57827;BME280;43656;57.746;11.780;2022-10-16T13:39:24;100353.03;;;13.45;100.00
57827;BME280;43656;57.746;11.780;2022-10-16T13:44:26;100393.28;;;13.35;100.00
57827;BME280;43656;57.746;11.780;2022-10-16T13:46:59;100393.66;;;13.38;100.00
57827;BME280;43656;57.746;11.780;2022-10-16T13:49:25;100393.34;;;13.47;100.00
57827;BME280;43656;57.746;11.780;2022-10-16T13:51:55;100406.31;;;13.56;100.00
57827;BME280;43656;57.746;11.780;2022-10-16T13:54:21;100411.72;;;13.56;100.00
57827;BME280;43656;57.746;11.780;2022-10-16T13:56:47;100412.44;;;13.63;100.00
57827;BME280;43656;57.746;11.780;2022-10-16T13:59:35;100405.84;;;13.59;100.00
57827;BME280;43656;57.746;11.780;2022-10-16T14:02:08;100403.97;;;13.60;100.00
57827;BME280;43656;57.746;11.780;2022-10-16T14:04:40;100416.66;;;13.59;100.00
57827;BME280;43656;57.746;11.780;2022-10-16T14:07:13;100416.66;;;13.59;99.41
57827;BME280;43656;57.746;11.780;2022-10-16T14:09:40;100426.88;;;13.57;98.87
57827;BME280;43656;57.746;11.780;2022-10-16T14:12:11;100425.03;;;13.58;98.23
57827;BME280;43656;57.746;11.780;2022-10-16T14:14:46;100438.28;;;13.59;97.78
57827;BME280;43656;57.746;11.780;2022-10-16T14:17:16;100439.13;;;13.60;97.10
57827;BME280;43656;57.746;11.780;2022-10-16T14:19:47;100439.56;;;13.57;96.48
57827;BME280;43656;57.746;11.780;2022-10-16T14:22:33;100453.25;;;13.62;94.92
57827;BME280;43656;57.746;11.780;2022-10-16T14:24:59;100454.06;;;13.62;95.33
57827;BME280;43656;57.746;11.780;2022-10-16T14:28:23;100455.56;;;13.58;95.21
57827;BME280;43656;57.746;11.780;2022-10-16T14:30:59;100480.94;;;13.57;95.15
57827;BME280;43656;57.746;11.780;2022-10-16T14:33:32;100447.47;;;13.40;94.66
57827;BME280;43656;57.746;11.780;2022-10-16T14:36:05;100465.66;;;13.51;94.54
57827;BME280;43656;57.746;11.780;2022-10-16T14:38:32;100478.56;;;13.49;93.88
57827;BME280;43656;57.746;11.780;2022-10-16T14:40:58;100489.59;;;13.48;94.24
57827;BME280;43656;57.746;11.780;2022-10-16T14:43:43;100497.56;;;13.43;94.42
57827;BME280;43656;57.746;11.780;2022-10-16T14:46:16;100492.47;;;13.34;94.27
57827;BME280;43656;57.746;11.780;2022-10-16T14:48:44;100501.00;;;13.31;94.41
57827;BME280;43656;57.746;11.780;2022-10-16T14:51:15;100499.13;;;13.32;93.83
57827;BME280;43656;57.746;11.780;2022-10-16T14:53:41;100488.97;;;13.27;94.15